createdAt,value
2018-11-10T00:01:11.194Z,29.82
2018-11-10T00:03:38.515Z,32.53
2018-11-10T00:06:06.310Z,33.35
2018-11-10T00:08:34.160Z,34.40
2018-11-10T00:11:01.836Z,31.40
2018-11-10T00:13:29.291Z,34.85
2018-11-10T00:15:56.893Z,31.42
2018-11-10T00:18:24.214Z,27.32
2018-11-10T00:20:51.786Z,31.77
2018-11-10T00:23:19.188Z,31.93
2018-11-10T00:25:46.558Z,32.73
2018-11-10T00:28:13.929Z,31.55
2018-11-10T00:30:41.831Z,31.35
2018-11-10T00:33:09.176Z,30.85
2018-11-10T00:35:36.534Z,29.72
2018-11-10T00:38:04.292Z,29.77
2018-11-10T00:40:32.612Z,32.80
2018-11-10T00:43:00.288Z,29.40
2018-11-10T00:45:27.684Z,31.37
2018-11-10T00:47:55.135Z,32.40
2018-11-10T00:50:22.862Z,31.17
2018-11-10T00:52:50.634Z,33.33
2018-11-10T00:55:18.221Z,33.83
2018-11-10T00:57:46.261Z,33.42
2018-11-10T01:00:14.299Z,36.55
2018-11-10T01:02:42.905Z,33.40
2018-11-10T01:05:10.755Z,38.65
2018-11-10T01:07:38.434Z,31.82
2018-11-10T01:10:06.651Z,34.38
2018-11-10T01:12:34.052Z,34.33
2018-11-10T01:15:01.478Z,36.17
2018-11-10T01:17:29.160Z,32.70
2018-11-10T01:19:56.507Z,33.85
2018-11-10T01:22:23.848Z,33.83
2018-11-10T01:24:51.549Z,36.05
2018-11-10T01:27:18.906Z,36.98
2018-11-10T01:29:46.321Z,36.42
2018-11-10T01:32:13.936Z,31.50
2018-11-10T01:34:41.531Z,30.08
2018-11-10T01:37:09.080Z,35.20
2018-11-10T01:39:36.710Z,33.30
2018-11-10T01:42:04.239Z,31.77
2018-11-10T01:44:32.066Z,38.88
2018-11-10T01:46:59.517Z,35.08
2018-11-10T01:49:27.287Z,31.07
2018-11-10T01:51:54.700Z,36.70
2018-11-10T01:54:22.053Z,33.53
2018-11-10T01:56:49.650Z,33.35
2018-11-10T01:59:17.088Z,30.72
2018-11-10T02:01:44.639Z,36.93
2018-11-10T02:04:11.997Z,42.08
2018-11-10T02:06:39.690Z,37.50
2018-11-10T02:09:07.527Z,35.78
2018-11-10T02:11:34.982Z,35.03
2018-11-10T02:14:02.556Z,34.00
2018-11-10T02:16:30.159Z,31.52
2018-11-10T02:18:57.534Z,34.80
2018-11-10T02:21:25.134Z,38.33
2018-11-10T02:23:52.503Z,31.73
2018-11-10T02:26:19.851Z,32.55
2018-11-10T02:28:47.488Z,33.42
2018-11-10T02:31:15.079Z,34.15
2018-11-10T02:33:42.507Z,35.88
2018-11-10T02:36:09.836Z,34.08
2018-11-10T02:38:37.549Z,34.95
2018-11-10T02:41:05.478Z,35.65
2018-11-10T02:43:32.858Z,38.35
2018-11-10T02:46:00.526Z,33.20
2018-11-10T02:48:27.906Z,37.80
2018-11-10T02:50:55.286Z,33.10
2018-11-10T02:53:22.845Z,35.78
2018-11-10T02:55:50.711Z,40.12
2018-11-10T02:58:18.067Z,33.33
2018-11-10T03:00:45.666Z,35.33
2018-11-10T03:03:12.990Z,33.42
2018-11-10T03:05:40.369Z,41.55
2018-11-10T03:08:07.725Z,32.15
2018-11-10T03:10:35.313Z,40.12
2018-11-10T03:13:02.903Z,39.95
2018-11-10T03:15:30.259Z,33.13
2018-11-10T03:17:57.660Z,41.48
2018-11-10T03:20:25.272Z,34.53
2018-11-10T03:22:52.710Z,35.38
2018-11-10T03:25:20.066Z,38.35
2018-11-10T03:27:47.381Z,30.70
2018-11-10T03:30:14.999Z,34.13
2018-11-10T03:32:43.120Z,36.30
2018-11-10T03:35:11.331Z,39.13
2018-11-10T03:37:39.259Z,34.75
2018-11-10T03:40:08.144Z,35.45
2018-11-10T03:42:35.592Z,39.45
2018-11-10T03:45:03.229Z,43.05
2018-11-10T03:47:31.158Z,40.88
2018-11-10T03:49:58.494Z,35.23
2018-11-10T03:52:26.496Z,37.23
2018-11-10T03:54:53.873Z,33.45
2018-11-10T03:57:21.563Z,36.08
2018-11-10T03:59:48.902Z,35.30
2018-11-10T04:02:16.331Z,34.70
2018-11-10T04:04:44.012Z,34.33
2018-11-10T04:07:11.357Z,31.50
2018-11-10T04:09:38.956Z,32.85
2018-11-10T04:12:06.687Z,35.50
2018-11-10T04:14:34.037Z,34.85
2018-11-10T04:17:01.460Z,33.40
2018-11-10T04:19:28.779Z,36.73
2018-11-10T04:21:56.350Z,32.67
2018-11-10T04:24:24.007Z,34.53
2018-11-10T04:26:51.364Z,33.15
2018-11-10T04:29:19.176Z,30.60
2018-11-10T04:31:46.894Z,34.05
2018-11-10T04:34:15.264Z,32.40
2018-11-10T04:36:42.763Z,37.42
2018-11-10T04:39:10.158Z,28.73
2018-11-10T04:41:37.535Z,33.08
2018-11-10T04:44:04.994Z,30.90
2018-11-10T04:46:32.718Z,31.02
2018-11-10T04:49:00.091Z,30.15
2018-11-10T04:51:27.918Z,31.57
2018-11-10T04:53:55.614Z,28.50
2018-11-10T04:56:23.649Z,26.30
2018-11-10T04:58:51.139Z,32.20
2018-11-10T05:01:18.885Z,25.37
2018-11-10T05:03:46.324Z,26.02
2018-11-10T05:06:13.677Z,27.22
2018-11-10T05:08:41.258Z,26.10
2018-11-10T05:11:09.434Z,26.80
2018-11-10T05:13:36.767Z,27.32
2018-11-10T05:16:04.482Z,25.37
2018-11-10T05:18:31.806Z,26.50
2018-11-10T05:20:59.385Z,26.42
2018-11-10T05:23:27.105Z,25.30
2018-11-10T05:25:54.859Z,26.85
2018-11-10T05:28:22.303Z,26.65
2018-11-10T05:30:49.959Z,24.45
2018-11-10T05:33:17.523Z,21.62
2018-11-10T05:35:44.895Z,24.07
2018-11-10T05:38:12.511Z,24.02
2018-11-10T05:40:39.868Z,27.13
2018-11-10T05:43:07.447Z,26.62
2018-11-10T05:45:35.294Z,22.95
2018-11-10T05:48:02.607Z,26.15
2018-11-10T05:50:29.947Z,27.25
2018-11-10T05:52:57.292Z,22.70
2018-11-10T05:55:24.659Z,25.62
2018-11-10T05:57:52.063Z,24.27
2018-11-10T06:00:20.257Z,26.62
2018-11-10T06:02:47.833Z,28.30
2018-11-10T06:05:15.167Z,24.65
2018-11-10T06:07:42.521Z,23.83
2018-11-10T06:10:11.115Z,25.62
2018-11-10T06:12:38.450Z,27.05
2018-11-10T06:15:06.082Z,22.17
2018-11-10T06:17:33.684Z,24.75
2018-11-10T06:20:01.357Z,24.12
2018-11-10T06:22:28.924Z,22.02
2018-11-10T06:24:56.250Z,23.02
2018-11-10T06:27:23.855Z,24.95
2018-11-10T06:29:51.242Z,20.80
2018-11-10T06:32:18.853Z,23.38
2018-11-10T06:34:46.838Z,25.08
2018-11-10T06:37:14.250Z,24.72
2018-11-10T06:39:41.639Z,23.95
2018-11-10T06:42:09.085Z,20.97
2018-11-10T06:44:36.690Z,24.07
2018-11-10T06:47:04.128Z,20.12
2018-11-10T06:49:31.527Z,23.18
2018-11-10T06:51:59.401Z,22.55
2018-11-10T06:54:33.563Z,26.50
2018-11-10T06:57:01.500Z,20.55
2018-11-10T06:59:34.008Z,25.70
2018-11-10T07:02:04.370Z,21.62
2018-11-10T07:04:35.289Z,22.85
2018-11-10T07:07:04.224Z,24.77
2018-11-10T07:09:35.263Z,25.27
2018-11-10T07:12:03.732Z,21.82
2018-11-10T07:14:34.425Z,22.77
2018-11-10T07:17:02.258Z,22.32
2018-11-10T07:19:30.728Z,22.13
2018-11-10T07:21:59.595Z,24.25
2018-11-10T07:24:29.010Z,22.25
2018-11-10T07:26:57.585Z,21.00
2018-11-10T07:29:26.387Z,22.77
2018-11-10T07:31:55.103Z,23.90
2018-11-10T07:34:23.661Z,19.00
2018-11-10T07:36:51.779Z,22.45
2018-11-10T07:39:19.405Z,18.70
2018-11-10T07:41:49.831Z,20.50
2018-11-10T07:44:18.401Z,20.68
2018-11-10T07:46:48.281Z,20.75
2018-11-10T07:49:17.332Z,21.80
2018-11-10T07:51:45.744Z,21.52
2018-11-10T07:54:14.591Z,22.15
2018-11-10T07:56:44.097Z,20.52
2018-11-10T07:59:12.028Z,22.20
2018-11-10T08:01:40.768Z,17.82
2018-11-10T08:04:09.490Z,20.15
2018-11-10T08:06:37.126Z,21.30
2018-11-10T08:09:07.778Z,22.30
2018-11-10T08:11:35.389Z,18.73
2018-11-10T08:14:03.821Z,22.27
2018-11-10T08:16:33.160Z,18.87
2018-11-10T08:19:00.660Z,21.50
2018-11-10T08:21:28.342Z,22.07
2018-11-10T08:23:55.721Z,20.62
2018-11-10T08:26:23.079Z,19.20
2018-11-10T08:28:50.695Z,21.27
2018-11-10T08:31:18.331Z,20.35
2018-11-10T08:33:45.881Z,22.05
2018-11-10T08:36:14.007Z,23.18
2018-11-10T08:38:41.930Z,29.72
2018-11-10T08:41:09.285Z,25.37
2018-11-10T08:43:36.922Z,21.07
2018-11-10T08:46:04.516Z,22.85
2018-11-10T08:48:32.440Z,23.57
2018-11-10T08:51:00.097Z,21.35
2018-11-10T08:53:27.829Z,21.23
2018-11-10T08:55:55.967Z,20.52
2018-11-10T08:58:23.606Z,22.07
2018-11-10T09:00:50.958Z,22.10
2018-11-10T09:03:18.319Z,22.40
2018-11-10T09:05:45.871Z,18.12
2018-11-10T09:08:13.212Z,23.83
2018-11-10T09:10:40.879Z,24.95
2018-11-10T09:13:08.462Z,22.27
2018-11-10T09:15:35.798Z,19.40
2018-11-10T09:18:03.871Z,21.60
2018-11-10T09:20:31.464Z,19.57
2018-11-10T09:22:59.091Z,19.12
2018-11-10T09:25:26.434Z,19.62
2018-11-10T09:27:53.847Z,20.90
2018-11-10T09:30:21.223Z,21.48
2018-11-10T09:35:33.506Z,17.62
2018-11-10T09:38:01.451Z,21.00
2018-11-10T09:40:29.453Z,20.10
2018-11-10T09:42:57.409Z,21.17
2018-11-10T09:45:24.774Z,18.40
2018-11-10T09:47:52.186Z,20.75
2018-11-10T09:50:21.208Z,20.17
2018-11-10T09:52:48.604Z,19.87
2018-11-10T09:55:16.735Z,19.80
2018-11-10T09:57:44.452Z,19.77
2018-11-10T10:00:15.034Z,17.90
2018-11-10T10:02:43.133Z,19.92
2018-11-10T10:05:10.873Z,17.73
2018-11-10T10:07:38.865Z,19.73
2018-11-10T10:10:07.167Z,23.92
2018-11-10T10:12:34.833Z,17.42
2018-11-10T10:15:02.233Z,21.33
2018-11-10T10:17:30.021Z,18.48
2018-11-10T10:19:57.637Z,19.85
2018-11-10T10:22:25.320Z,19.17
2018-11-10T10:24:53.259Z,19.85
2018-11-10T10:27:20.999Z,17.07
2018-11-10T10:29:48.411Z,19.87
2018-11-10T10:32:15.858Z,18.48
2018-11-10T10:34:44.058Z,17.80
2018-11-10T10:37:11.270Z,21.55
2018-11-10T10:39:38.956Z,19.45
2018-11-10T10:42:07.145Z,18.75
2018-11-10T10:44:35.430Z,21.85
2018-11-10T10:47:03.666Z,20.82
2018-11-10T10:49:31.627Z,16.97
2018-11-10T10:52:00.561Z,20.80
2018-11-10T10:54:29.676Z,20.15
2018-11-10T10:56:57.188Z,19.75
2018-11-10T10:59:25.018Z,19.15
2018-11-10T11:01:58.071Z,18.65
2018-11-10T11:04:30.853Z,17.42
2018-11-10T11:06:58.762Z,19.60
2018-11-10T11:09:26.480Z,19.80
2018-11-10T11:11:54.049Z,21.50
2018-11-10T11:14:21.717Z,20.90
2018-11-10T11:16:49.071Z,22.17
2018-11-10T11:19:16.784Z,21.45
2018-11-10T11:21:44.528Z,20.17
2018-11-10T11:24:12.150Z,21.40
2018-11-10T11:26:39.722Z,25.10
2018-11-10T11:29:07.226Z,21.23
2018-11-10T11:31:34.701Z,21.97
2018-11-10T11:34:02.135Z,20.37
2018-11-10T11:36:29.561Z,25.25
2018-11-10T11:38:57.036Z,21.27
2018-11-10T11:41:24.481Z,22.25
2018-11-10T11:43:52.371Z,20.30
2018-11-10T11:46:19.946Z,21.07
2018-11-10T11:48:47.410Z,24.37
2018-11-10T11:51:14.803Z,21.70
2018-11-10T11:53:42.493Z,22.82
2018-11-10T11:56:10.596Z,19.87
2018-11-10T11:58:38.257Z,22.27
2018-11-10T12:01:06.090Z,22.17
2018-11-10T12:03:33.890Z,22.17
2018-11-10T12:06:01.698Z,21.87
2018-11-10T12:08:29.055Z,22.85
2018-11-10T12:10:56.519Z,21.40
2018-11-10T12:13:24.124Z,21.70
2018-11-10T12:15:51.724Z,18.82
2018-11-10T12:18:19.282Z,19.77
2018-11-10T12:20:46.805Z,19.37
2018-11-10T12:23:14.193Z,23.18
2018-11-10T12:25:41.554Z,19.60
2018-11-10T12:28:08.951Z,21.97
2018-11-10T12:30:36.343Z,20.23
2018-11-10T12:33:04.027Z,21.40
2018-11-10T12:35:31.407Z,21.33
2018-11-10T12:37:58.724Z,24.23
2018-11-10T12:40:26.091Z,19.90
2018-11-10T12:42:53.945Z,17.37
2018-11-10T12:45:21.299Z,18.85
2018-11-10T12:47:48.918Z,21.57
2018-11-10T12:50:16.330Z,19.90
2018-11-10T12:52:44.794Z,18.15
2018-11-10T12:55:13.501Z,20.35
2018-11-10T12:57:41.644Z,20.50
2018-11-10T13:00:09.727Z,24.32
2018-11-10T13:02:37.219Z,19.27
2018-11-10T13:05:05.746Z,19.48
2018-11-10T13:07:33.249Z,19.82
2018-11-10T13:10:00.710Z,22.87
2018-11-10T13:12:29.012Z,23.00
2018-11-10T13:14:56.419Z,20.95
2018-11-10T13:17:24.106Z,22.67
2018-11-10T13:19:51.525Z,22.10
2018-11-10T13:22:19.584Z,22.70
2018-11-10T13:24:47.254Z,22.62
2018-11-10T13:27:14.870Z,22.80
2018-11-10T13:29:42.354Z,23.80
2018-11-10T13:32:09.914Z,21.87
2018-11-10T13:34:37.293Z,17.67
2018-11-10T13:37:05.156Z,22.25
2018-11-10T13:39:32.551Z,22.98
2018-11-10T13:41:59.927Z,22.90
2018-11-10T13:44:27.433Z,18.57
2018-11-10T13:46:54.961Z,21.85
2018-11-10T13:49:22.823Z,19.65
2018-11-10T13:51:50.737Z,20.90
2018-11-10T13:54:18.349Z,19.75
2018-11-10T13:56:46.217Z,20.30
2018-11-10T13:59:13.589Z,20.82
2018-11-10T14:01:41.182Z,20.30
2018-11-10T14:04:08.530Z,21.97
2018-11-10T14:06:36.160Z,21.10
2018-11-10T14:09:04.498Z,18.80
2018-11-10T14:11:32.056Z,20.52
2018-11-10T14:13:59.647Z,19.67
2018-11-10T14:16:27.243Z,20.68
2018-11-10T14:18:54.780Z,18.45
2018-11-10T14:21:22.327Z,19.05
2018-11-10T14:23:50.221Z,22.22
2018-11-10T14:26:18.172Z,19.57
2018-11-10T14:28:45.897Z,21.45
2018-11-10T14:31:13.230Z,19.45
2018-11-10T14:33:40.878Z,21.52
2018-11-10T14:36:08.509Z,18.90
2018-11-10T14:38:35.921Z,17.82
2018-11-10T14:41:03.853Z,20.20
2018-11-10T14:43:31.658Z,22.87
2018-11-10T14:45:59.264Z,15.95
2018-11-10T14:48:26.625Z,20.95
2018-11-10T14:50:54.002Z,20.45
2018-11-10T14:53:22.273Z,18.92
2018-11-10T14:55:49.927Z,20.27
2018-11-10T14:58:17.350Z,17.85
2018-11-10T15:00:44.800Z,16.50
2018-11-10T15:03:12.779Z,17.20
2018-11-10T15:05:40.510Z,18.27
2018-11-10T15:08:07.817Z,20.08
2018-11-10T15:10:35.181Z,18.52
2018-11-10T15:13:02.538Z,17.48
2018-11-10T15:15:29.861Z,18.17
2018-11-10T15:17:58.177Z,19.87
2018-11-10T15:20:25.557Z,17.95
2018-11-10T15:22:53.382Z,23.05
2018-11-10T15:25:21.908Z,19.00
2018-11-10T15:27:49.540Z,18.55
2018-11-10T15:30:19.083Z,18.12
2018-11-10T15:32:47.908Z,19.30
2018-11-10T15:35:16.659Z,19.98
2018-11-10T15:37:45.770Z,23.00
2018-11-10T15:40:14.926Z,22.95
2018-11-10T15:42:42.612Z,20.50
2018-11-10T15:45:11.202Z,21.73
2018-11-10T15:47:38.799Z,18.07
2018-11-10T15:50:07.049Z,16.75
2018-11-10T15:52:34.539Z,17.82
2018-11-10T15:55:01.886Z,18.50
2018-11-10T15:57:29.868Z,20.35
2018-11-10T15:59:57.184Z,21.35
2018-11-10T16:02:24.719Z,20.75
2018-11-10T16:04:52.130Z,18.73
2018-11-10T16:07:19.635Z,19.10
2018-11-10T16:09:47.022Z,18.77
2018-11-10T16:12:14.423Z,21.73
2018-11-10T16:14:41.999Z,19.62
2018-11-10T16:17:09.689Z,18.90
2018-11-10T16:19:37.057Z,21.35
2018-11-10T16:22:04.823Z,22.95
2018-11-10T16:24:32.183Z,23.02
2018-11-10T16:26:59.597Z,20.62
2018-11-10T16:29:27.043Z,20.45
2018-11-10T16:31:54.409Z,20.45
2018-11-10T16:34:22.302Z,22.52
2018-11-10T16:36:50.029Z,20.88
2018-11-10T16:39:17.875Z,21.37
2018-11-10T16:41:45.221Z,17.40
2018-11-10T16:44:12.867Z,22.65
2018-11-10T16:46:40.202Z,20.17
2018-11-10T16:49:07.793Z,17.35
2018-11-10T16:51:35.526Z,22.02
2018-11-10T16:54:02.854Z,21.40
2018-11-10T16:56:30.212Z,21.62
2018-11-10T16:58:57.849Z,25.15
2018-11-10T17:01:25.442Z,20.65
2018-11-10T17:03:53.023Z,21.50
2018-11-10T17:06:20.364Z,21.25
2018-11-10T17:08:47.801Z,21.27
2018-11-10T17:11:15.075Z,20.02
2018-11-10T17:13:43.242Z,17.37
2018-11-10T17:16:10.868Z,21.27
2018-11-10T17:18:38.584Z,21.95
2018-11-10T17:21:06.136Z,20.43
2018-11-10T17:23:33.824Z,18.50
2018-11-10T17:26:01.159Z,19.52
2018-11-10T17:28:28.550Z,17.50
2018-11-10T17:30:55.949Z,21.42
2018-11-10T17:33:23.390Z,21.52
2018-11-10T17:35:50.771Z,18.82
2018-11-10T17:38:18.353Z,20.52
2018-11-10T17:40:45.674Z,21.07
2018-11-10T17:43:13.009Z,22.25
2018-11-10T17:45:40.597Z,21.02
2018-11-10T17:48:08.223Z,19.50
2018-11-10T17:50:35.543Z,19.55
2018-11-10T17:53:03.100Z,19.00
2018-11-10T17:55:30.923Z,19.85
2018-11-10T17:57:58.545Z,24.32
2018-11-10T18:00:25.914Z,19.87
2018-11-10T18:02:53.255Z,17.77
2018-11-10T18:05:20.722Z,19.25
2018-11-10T18:07:48.512Z,18.67
2018-11-10T18:10:17.180Z,20.77
2018-11-10T18:12:45.061Z,22.93
2018-11-10T18:15:12.832Z,19.23
2018-11-10T18:17:40.913Z,17.65
2018-11-10T18:20:09.071Z,17.67
2018-11-10T18:22:36.779Z,20.45
2018-11-10T18:25:04.257Z,20.88
2018-11-10T18:27:31.966Z,21.17
2018-11-10T18:29:59.574Z,21.55
2018-11-10T18:32:26.991Z,18.05
2018-11-10T18:34:54.380Z,17.50
2018-11-10T18:37:21.755Z,17.35
2018-11-10T18:39:49.381Z,19.82
2018-11-10T18:42:16.751Z,19.90
2018-11-10T18:44:44.106Z,23.57
2018-11-10T18:47:11.579Z,17.95
2018-11-10T18:49:39.143Z,19.20
2018-11-10T18:52:06.955Z,22.52
2018-11-10T18:54:34.475Z,25.17
2018-11-10T18:57:02.838Z,19.55
2018-11-10T18:59:30.722Z,20.00
2018-11-10T19:01:58.281Z,22.32
2018-11-10T19:04:25.653Z,19.12
2018-11-10T19:06:53.051Z,20.17
2018-11-10T19:09:20.383Z,25.75
2018-11-10T19:11:48.348Z,19.10
2018-11-10T19:14:15.893Z,21.02
2018-11-10T19:16:43.294Z,26.68
2018-11-10T19:19:10.725Z,17.37
2018-11-10T19:21:40.290Z,22.82
2018-11-10T19:24:07.727Z,19.77
2018-11-10T19:26:35.196Z,19.82
2018-11-10T19:29:02.688Z,19.87
2018-11-10T19:31:30.688Z,19.25
2018-11-10T19:33:59.118Z,21.00
2018-11-10T19:36:27.514Z,18.73
2018-11-10T19:38:55.448Z,22.20
2018-11-10T19:41:22.997Z,22.35
2018-11-10T19:43:50.305Z,20.62
2018-11-10T19:46:17.586Z,18.45
2018-11-10T19:48:45.863Z,21.95
2018-11-10T19:51:15.058Z,21.77
2018-11-10T19:53:43.148Z,19.75
2018-11-10T19:56:11.434Z,19.35
2018-11-10T19:58:38.803Z,20.12
2018-11-10T20:01:06.621Z,18.62
2018-11-10T20:03:34.124Z,21.70
2018-11-10T20:06:01.555Z,19.12
2018-11-10T20:08:29.127Z,21.50
2018-11-10T20:10:56.801Z,19.20
2018-11-10T20:13:24.338Z,23.47
2018-11-10T20:15:52.951Z,20.00
2018-11-10T20:18:20.689Z,23.87
2018-11-10T20:20:48.228Z,18.92
2018-11-10T20:23:15.769Z,20.00
2018-11-10T20:25:43.071Z,22.10
2018-11-10T20:28:10.440Z,35.33
2018-11-10T20:30:38.051Z,20.35
2018-11-10T20:33:05.871Z,21.02
2018-11-10T20:35:36.333Z,22.65
2018-11-10T20:38:05.661Z,21.97
2018-11-10T20:40:33.390Z,17.65
2018-11-10T20:43:01.362Z,18.27
2018-11-10T20:45:28.987Z,19.55
2018-11-10T20:47:56.790Z,19.25
2018-11-10T20:50:25.060Z,19.77
2018-11-10T20:52:53.550Z,20.50
2018-11-10T20:55:21.131Z,18.57
2018-11-10T20:57:51.468Z,21.82
2018-11-10T21:00:24.317Z,19.60
2018-11-10T21:02:55.202Z,20.75
2018-11-10T21:05:25.645Z,23.42
2018-11-10T21:07:55.730Z,20.50
2018-11-10T21:10:30.319Z,18.42
2018-11-10T21:13:01.651Z,20.05
2018-11-10T21:15:31.398Z,19.65
2018-11-10T21:18:02.573Z,21.30
2018-11-10T21:20:33.799Z,17.98
2018-11-10T21:23:06.344Z,20.32
2018-11-10T21:25:34.581Z,19.45
2018-11-10T21:28:10.268Z,20.95
2018-11-10T21:30:44.486Z,20.65
2018-11-10T21:33:14.160Z,19.02
2018-11-10T21:35:44.171Z,19.15
2018-11-10T21:38:14.515Z,19.60
2018-11-10T21:40:44.441Z,20.72
2018-11-10T21:43:14.787Z,21.90
2018-11-10T21:45:44.796Z,21.00
2018-11-10T21:48:17.552Z,21.70
2018-11-10T21:50:49.276Z,17.57
2018-11-10T21:53:18.578Z,20.37
2018-11-10T21:55:46.922Z,17.25
2018-11-10T21:58:16.477Z,17.80
2018-11-10T22:00:46.069Z,19.05
2018-11-10T22:03:16.172Z,20.52
2018-11-10T22:05:45.717Z,23.32
2018-11-10T22:08:16.767Z,19.98
2018-11-10T22:10:49.144Z,20.85
2018-11-10T22:13:17.590Z,23.07
2018-11-10T22:15:56.833Z,20.75
2018-11-10T22:18:33.006Z,18.02
2018-11-10T22:21:02.860Z,20.62
2018-11-10T22:23:35.842Z,19.07
2018-11-10T22:26:08.365Z,18.35
2018-11-10T22:28:36.095Z,19.02
2018-11-10T22:31:04.689Z,17.75
2018-11-10T22:33:32.765Z,18.70
2018-11-10T22:36:02.097Z,17.62
2018-11-10T22:38:30.716Z,18.45
2018-11-10T22:40:58.456Z,18.90
2018-11-10T22:43:27.072Z,20.65
2018-11-10T22:45:54.656Z,23.18
2018-11-10T22:48:23.662Z,21.25
2018-11-10T22:50:51.933Z,20.30
2018-11-10T22:53:20.305Z,20.45
2018-11-10T22:55:47.991Z,20.65
2018-11-10T22:58:15.743Z,19.57
2018-11-10T23:00:49.138Z,18.75
2018-11-10T23:03:18.063Z,23.73
2018-11-10T23:05:48.676Z,19.60
2018-11-10T23:08:16.726Z,20.00
2018-11-10T23:10:45.612Z,21.05
2018-11-10T23:13:14.141Z,19.90
2018-11-10T23:15:42.785Z,20.70
2018-11-10T23:18:12.190Z,27.85
2018-11-10T23:20:40.260Z,21.52
2018-11-10T23:23:09.935Z,22.15
2018-11-10T23:25:37.255Z,21.17
2018-11-10T23:28:04.744Z,23.40
2018-11-10T23:30:33.008Z,21.10
2018-11-10T23:33:02.062Z,21.95
2018-11-10T23:35:30.800Z,21.27
2018-11-10T23:38:00.150Z,23.83
2018-11-10T23:40:28.787Z,25.30
2018-11-10T23:42:57.246Z,21.90
2018-11-10T23:45:24.779Z,22.15
2018-11-10T23:47:53.089Z,22.73
2018-11-10T23:50:20.950Z,21.20
2018-11-10T23:52:49.395Z,22.02
2018-11-10T23:55:18.084Z,21.93
2018-11-10T23:57:47.320Z,23.70
